createdAt,value
2022-09-06T00:00:42.095Z,2.30
2022-09-06T00:03:45.397Z,2.72
2022-09-06T00:06:47.696Z,2.10
2022-09-06T00:09:50.289Z,2.10
2022-09-06T00:12:53.705Z,2.22
2022-09-06T00:15:56.549Z,2.37
2022-09-06T00:18:58.890Z,2.40
2022-09-06T00:22:01.337Z,2.20
2022-09-06T00:25:07.516Z,2.00
2022-09-06T00:28:09.975Z,2.50
2022-09-06T00:31:13.456Z,2.40
2022-09-06T00:34:15.999Z,2.35
2022-09-06T00:37:18.162Z,2.22
2022-09-06T00:40:22.942Z,2.90
2022-09-06T00:43:25.606Z,2.30
2022-09-06T00:46:31.568Z,2.20
2022-09-06T00:49:40.129Z,2.45
2022-09-06T00:52:45.074Z,2.57
2022-09-06T00:55:50.458Z,2.78
2022-09-06T00:58:54.098Z,2.65
2022-09-06T01:01:56.482Z,2.60
2022-09-06T01:05:01.651Z,2.87
2022-09-06T01:08:31.620Z,2.45
2022-09-06T01:11:57.640Z,2.62
2022-09-06T01:15:09.834Z,2.65
2022-09-06T01:18:21.958Z,2.15
2022-09-06T01:21:44.035Z,2.60
2022-09-06T01:25:18.986Z,2.60
2022-09-06T01:28:45.968Z,2.58
2022-09-06T01:31:54.744Z,2.83
2022-09-06T01:35:07.030Z,3.00
2022-09-06T01:38:11.643Z,2.72
2022-09-06T01:41:14.035Z,3.03
2022-09-06T01:44:16.652Z,2.72
2022-09-06T01:47:39.892Z,2.92
2022-09-06T01:50:57.609Z,2.65
2022-09-06T01:54:21.542Z,2.85
2022-09-06T01:57:40.917Z,2.85
2022-09-06T02:00:58.923Z,3.53
2022-09-06T02:04:20.546Z,2.80
2022-09-06T02:07:26.506Z,2.87
2022-09-06T02:10:40.940Z,3.15
2022-09-06T02:13:50.301Z,3.05
2022-09-06T02:16:54.965Z,2.65
2022-09-06T02:20:08.294Z,2.85
2022-09-06T02:23:12.567Z,2.78
2022-09-06T02:26:21.778Z,2.90
2022-09-06T02:29:24.411Z,2.87
2022-09-06T02:32:28.215Z,3.00
2022-09-06T02:35:31.157Z,2.62
2022-09-06T02:38:36.585Z,2.90
2022-09-06T02:41:42.425Z,2.80
2022-09-06T02:44:44.592Z,2.60
2022-09-06T02:47:47.059Z,2.80
2022-09-06T02:50:49.195Z,3.17
2022-09-06T02:53:51.842Z,3.15
2022-09-06T02:56:54.028Z,2.75
2022-09-06T02:59:57.550Z,2.85
2022-09-06T03:03:00.142Z,3.05
2022-09-06T03:06:02.660Z,3.55
2022-09-06T03:09:04.800Z,3.20
2022-09-06T03:12:07.676Z,3.03
2022-09-06T03:15:11.589Z,2.90
2022-09-06T03:18:14.838Z,3.37
2022-09-06T03:21:17.079Z,3.03
2022-09-06T03:24:20.168Z,3.87
2022-09-06T03:27:22.323Z,2.92
2022-09-06T03:30:24.832Z,3.45
2022-09-06T03:33:27.032Z,2.83
2022-09-06T03:36:29.717Z,3.12
2022-09-06T03:39:32.797Z,3.10
2022-09-06T03:42:36.785Z,3.47
2022-09-06T03:45:39.178Z,3.15
2022-09-06T03:48:42.067Z,3.22
2022-09-06T03:51:45.139Z,3.47
2022-09-06T03:54:47.884Z,3.05
2022-09-06T03:57:53.049Z,3.00
2022-09-06T04:01:10.605Z,3.03
2022-09-06T04:04:13.143Z,3.08
2022-09-06T04:07:15.251Z,3.80
2022-09-06T04:10:17.752Z,3.40
2022-09-06T04:13:19.903Z,3.42
2022-09-06T04:16:22.397Z,2.95
2022-09-06T04:19:24.705Z,3.45
2022-09-06T04:22:27.614Z,3.40
2022-09-06T04:25:29.814Z,3.45
2022-09-06T04:28:34.502Z,2.33
2022-09-06T04:31:36.728Z,3.10
2022-09-06T04:34:39.221Z,3.37
2022-09-06T04:37:41.316Z,3.55
2022-09-06T04:40:43.760Z,2.92
2022-09-06T04:43:45.939Z,2.95
2022-09-06T04:46:49.044Z,3.33
2022-09-06T04:49:51.301Z,3.20
2022-09-06T04:52:53.660Z,3.15
2022-09-06T04:55:58.250Z,3.20
2022-09-06T04:59:00.874Z,2.92
2022-09-06T05:02:03.373Z,2.72
2022-09-06T05:05:06.138Z,3.22
2022-09-06T05:08:08.345Z,3.70
2022-09-06T05:11:13.737Z,3.10
2022-09-06T05:14:16.363Z,3.12
2022-09-06T05:17:18.738Z,3.80
2022-09-06T05:20:23.142Z,3.05
2022-09-06T05:23:26.664Z,3.10
2022-09-06T05:26:28.765Z,3.40
2022-09-06T05:29:31.417Z,3.17
2022-09-06T05:32:33.533Z,3.28
2022-09-06T05:35:36.299Z,2.72
2022-09-06T05:38:38.405Z,3.25
2022-09-06T05:41:40.767Z,3.53
2022-09-06T05:44:42.902Z,3.35
2022-09-06T05:47:45.530Z,3.87
2022-09-06T05:50:47.754Z,3.58
2022-09-06T05:53:50.403Z,2.92
2022-09-06T05:56:52.878Z,3.12
2022-09-06T05:59:55.119Z,3.75
2022-09-06T06:02:59.676Z,2.72
2022-09-06T06:06:02.227Z,2.97
2022-09-06T06:09:04.539Z,2.80
2022-09-06T06:12:07.616Z,2.92
2022-09-06T06:15:10.148Z,3.22
2022-09-06T06:18:12.643Z,2.70
2022-09-06T06:21:19.627Z,4.00
2022-09-06T06:24:22.551Z,2.90
2022-09-06T06:27:24.650Z,3.05
2022-09-06T06:30:27.169Z,2.85
2022-09-06T06:33:29.471Z,3.75
2022-09-06T06:36:34.626Z,3.08
2022-09-06T06:39:37.030Z,2.65
2022-09-06T06:42:39.447Z,3.00
2022-09-06T06:45:41.939Z,2.97
2022-09-06T06:48:46.061Z,2.70
2022-09-06T06:51:48.155Z,2.92
2022-09-06T06:54:50.531Z,2.83
2022-09-06T06:57:52.700Z,3.05
2022-09-06T07:00:55.152Z,2.85
2022-09-06T07:03:58.084Z,3.30
2022-09-06T07:10:38.057Z,3.08
2022-09-06T07:13:40.981Z,3.30
2022-09-06T07:16:43.536Z,3.50
2022-09-06T07:26:30.731Z,2.90
2022-09-06T07:29:32.871Z,3.10
2022-09-06T07:32:35.446Z,2.95
2022-09-06T07:35:37.574Z,3.30
2022-09-06T07:38:40.477Z,3.12
2022-09-06T07:41:42.946Z,3.55
2022-09-06T07:44:45.482Z,3.50
2022-09-06T07:48:00.263Z,3.40
2022-09-06T07:51:07.182Z,3.10
2022-09-06T07:57:31.826Z,3.70
2022-09-06T08:00:34.025Z,3.47
2022-09-06T08:03:36.479Z,3.33
2022-09-06T08:10:07.633Z,3.55
2022-09-06T08:13:09.767Z,2.92
2022-09-06T08:16:13.924Z,3.47
2022-09-06T08:19:16.772Z,3.67
2022-09-06T08:22:19.159Z,3.53
2022-09-06T08:25:22.822Z,3.62
2022-09-06T08:28:28.778Z,3.62
2022-09-06T08:31:32.854Z,3.90
2022-09-06T08:34:35.396Z,3.83
2022-09-06T08:37:37.574Z,3.28
2022-09-06T08:40:40.106Z,3.75
2022-09-06T08:47:26.100Z,3.53
2022-09-06T08:50:29.035Z,3.70
2022-09-06T08:53:32.382Z,3.70
2022-09-06T08:56:42.531Z,3.50
2022-09-06T08:59:45.088Z,3.78
2022-09-06T09:02:51.974Z,3.80
2022-09-06T09:05:54.580Z,3.80
2022-09-06T09:09:07.075Z,4.15
2022-09-06T09:12:13.165Z,3.25
2022-09-06T09:15:19.108Z,3.53
2022-09-06T09:18:33.252Z,3.15
2022-09-06T09:21:40.467Z,3.45
2022-09-06T09:24:43.178Z,3.85
2022-09-06T09:27:45.632Z,3.37
2022-09-06T09:30:53.649Z,3.67
2022-09-06T09:40:49.408Z,3.28
2022-09-06T09:44:01.174Z,3.17
2022-09-06T09:47:23.741Z,2.97
2022-09-06T09:50:30.425Z,3.22
2022-09-06T09:53:32.702Z,2.87
2022-09-06T09:56:47.206Z,3.40
2022-09-06T09:59:58.794Z,2.97
2022-09-06T10:03:11.654Z,2.90
2022-09-06T10:09:41.559Z,2.78
2022-09-06T10:12:44.004Z,3.10
2022-09-06T10:15:47.068Z,2.92
2022-09-06T10:18:52.703Z,3.12
2022-09-06T10:22:03.868Z,3.10
2022-09-06T10:25:31.939Z,3.10
2022-09-06T10:28:36.415Z,3.35
2022-09-06T10:31:57.783Z,3.33
2022-09-06T10:35:14.942Z,2.92
2022-09-06T10:38:48.375Z,3.20
2022-09-06T10:42:10.168Z,3.10
2022-09-06T10:45:18.137Z,3.37
2022-09-06T10:48:26.490Z,2.97
2022-09-06T10:51:54.493Z,3.08
2022-09-06T10:55:03.884Z,2.95
2022-09-06T10:58:22.910Z,3.15
2022-09-06T11:01:37.553Z,3.58
2022-09-06T11:11:46.400Z,2.70
2022-09-06T11:14:48.634Z,2.70
2022-09-06T11:18:05.481Z,2.65
2022-09-06T11:21:38.736Z,2.08
2022-09-06T11:25:02.164Z,2.05
2022-09-06T11:28:11.498Z,2.25
2022-09-06T11:34:58.912Z,1.52
2022-09-06T11:38:08.269Z,1.92
2022-09-06T11:41:17.178Z,2.30
2022-09-06T11:44:50.574Z,1.87
2022-09-06T11:47:53.532Z,1.87
2022-09-06T11:50:56.370Z,2.53
2022-09-06T11:53:58.506Z,2.08
2022-09-06T11:57:22.454Z,2.03
2022-09-06T12:00:25.170Z,2.00
2022-09-06T12:07:12.997Z,1.65
2022-09-06T12:10:40.263Z,1.92
2022-09-06T12:14:17.208Z,2.00
2022-09-06T12:17:21.216Z,1.67
2022-09-06T12:20:48.454Z,2.20
2022-09-06T12:23:50.868Z,1.52
2022-09-06T12:27:12.338Z,1.48
2022-09-06T12:30:37.343Z,1.70
2022-09-06T12:33:39.503Z,1.80
2022-09-06T12:36:53.686Z,1.62
2022-09-06T12:39:59.945Z,1.60
2022-09-06T12:43:04.302Z,1.85
2022-09-06T12:46:07.981Z,1.48
2022-09-06T12:49:12.259Z,1.80
2022-09-06T12:52:19.358Z,1.70
2022-09-06T12:55:37.043Z,1.67
2022-09-06T12:58:39.595Z,1.60
2022-09-06T13:01:49.298Z,1.62
2022-09-06T13:05:02.075Z,1.60
2022-09-06T13:08:05.297Z,2.15
2022-09-06T13:11:13.429Z,1.95
2022-09-06T13:14:27.728Z,1.67
2022-09-06T13:17:30.990Z,2.40
2022-09-06T13:20:33.421Z,1.80
2022-09-06T13:23:47.627Z,1.90
2022-09-06T13:26:51.020Z,1.80
2022-09-06T13:29:58.594Z,2.03
2022-09-06T13:36:11.559Z,1.87
2022-09-06T13:39:37.616Z,2.22
2022-09-06T13:42:40.307Z,2.00
2022-09-06T13:45:44.320Z,2.40
2022-09-06T13:48:47.699Z,2.22
2022-09-06T13:51:52.680Z,1.87
2022-09-06T13:54:54.875Z,2.15
2022-09-06T13:57:57.321Z,2.40
2022-09-06T14:01:04.663Z,2.40
2022-09-06T14:07:09.390Z,1.90
2022-09-06T14:10:11.809Z,2.10
2022-09-06T14:13:15.635Z,1.92
2022-09-06T14:16:18.100Z,2.17
2022-09-06T14:19:20.356Z,2.58
2022-09-06T14:22:22.786Z,2.17
2022-09-06T14:25:25.161Z,1.95
2022-09-06T14:28:28.557Z,2.10
2022-09-06T14:31:32.594Z,2.50
2022-09-06T14:34:35.182Z,2.20
2022-09-06T14:37:37.783Z,2.37
2022-09-06T14:40:44.068Z,2.15
2022-09-06T14:43:50.403Z,1.98
2022-09-06T14:46:54.501Z,2.55
2022-09-06T14:49:56.643Z,1.87
2022-09-06T14:52:59.130Z,2.10
2022-09-06T14:56:03.172Z,1.92
2022-09-06T14:59:06.612Z,2.62
2022-09-06T15:02:08.832Z,2.05
2022-09-06T15:05:11.300Z,1.95
2022-09-06T15:08:14.475Z,2.33
2022-09-06T15:11:35.026Z,2.08
2022-09-06T15:14:37.836Z,2.17
2022-09-06T15:17:40.276Z,2.25
2022-09-06T15:20:43.388Z,2.22
2022-09-06T15:23:45.871Z,2.50
2022-09-06T15:26:49.144Z,2.40
2022-09-06T15:29:51.529Z,3.87
2022-09-06T15:32:53.649Z,2.80
2022-09-06T15:35:56.596Z,3.40
2022-09-06T15:39:01.064Z,2.80
2022-09-06T15:42:03.673Z,3.17
2022-09-06T15:45:06.738Z,3.25
2022-09-06T15:48:09.379Z,3.65
2022-09-06T15:51:13.735Z,3.87
2022-09-06T15:54:18.922Z,3.85
2022-09-06T15:57:21.084Z,3.67
2022-09-06T16:00:24.228Z,3.03
2022-09-06T16:03:26.929Z,3.45
2022-09-06T16:06:31.896Z,3.55
2022-09-06T16:09:34.468Z,3.40
2022-09-06T16:12:36.596Z,3.15
2022-09-06T16:15:38.989Z,3.28
2022-09-06T16:18:43.227Z,3.62
2022-09-06T16:21:45.637Z,3.30
2022-09-06T16:24:47.742Z,2.92
2022-09-06T16:27:50.139Z,3.03
2022-09-06T16:30:52.306Z,2.97
2022-09-06T16:33:56.208Z,3.78
2022-09-06T16:36:58.403Z,3.72
2022-09-06T16:40:01.300Z,3.62
2022-09-06T16:43:03.880Z,3.17
2022-09-06T16:46:07.821Z,2.80
2022-09-06T16:49:10.155Z,3.00
2022-09-06T16:52:13.316Z,2.80
2022-09-06T16:55:15.557Z,3.45
2022-09-06T16:58:17.951Z,2.92
2022-09-06T17:01:21.247Z,3.08
2022-09-06T17:04:23.778Z,3.60
2022-09-06T17:07:26.068Z,3.47
2022-09-06T17:10:28.748Z,3.22
2022-09-06T17:13:32.105Z,3.75
2022-09-06T17:16:53.035Z,3.17
2022-09-06T17:19:55.237Z,3.20
2022-09-06T17:22:57.671Z,3.22
2022-09-06T17:26:00.333Z,3.30
2022-09-06T17:29:03.674Z,3.10
2022-09-06T17:32:10.012Z,2.78
2022-09-06T17:35:12.692Z,3.28
2022-09-06T17:38:16.379Z,3.00
2022-09-06T17:41:27.915Z,3.03
2022-09-06T17:44:30.188Z,3.12
2022-09-06T17:47:34.356Z,3.15
2022-09-06T17:50:36.962Z,3.03
2022-09-06T17:53:39.626Z,3.03
2022-09-06T17:56:41.828Z,3.10
2022-09-06T17:59:44.289Z,3.65
2022-09-06T18:02:46.383Z,3.65
2022-09-06T18:05:48.763Z,3.62
2022-09-06T18:08:53.538Z,3.70
2022-09-06T18:11:55.957Z,3.70
2022-09-06T18:14:58.113Z,3.00
2022-09-06T18:18:00.580Z,3.60
2022-09-06T18:21:04.363Z,3.83
2022-09-06T18:24:07.955Z,3.97
2022-09-06T18:27:10.106Z,3.92
2022-09-06T18:30:14.857Z,4.07
2022-09-06T18:33:17.760Z,4.43
2022-09-06T18:36:20.239Z,4.22
2022-09-06T18:39:22.500Z,4.15
2022-09-06T18:42:24.943Z,4.03
2022-09-06T18:45:27.177Z,4.03
2022-09-06T18:48:33.602Z,4.15
2022-09-06T18:51:39.320Z,3.95
2022-09-06T18:54:43.576Z,4.07
2022-09-06T18:57:45.709Z,3.50
2022-09-06T19:00:48.279Z,4.03
2022-09-06T19:03:50.611Z,3.80
2022-09-06T19:06:53.029Z,3.75
2022-09-06T19:09:55.195Z,3.70
2022-09-06T19:12:57.579Z,3.70
2022-09-06T19:16:00.452Z,3.92
2022-09-06T19:19:07.554Z,4.18
2022-09-06T19:22:09.764Z,4.00
2022-09-06T19:25:12.166Z,4.12
2022-09-06T19:28:14.307Z,4.15
2022-09-06T19:31:17.408Z,4.40
2022-09-06T19:34:32.788Z,3.50
2022-09-06T19:37:35.332Z,3.87
2022-09-06T19:40:37.728Z,3.90
2022-09-06T19:43:40.381Z,4.07
2022-09-06T19:46:46.265Z,3.90
2022-09-06T19:49:48.803Z,4.40
2022-09-06T19:52:50.964Z,4.82
2022-09-06T19:55:53.336Z,4.30
2022-09-06T19:58:57.815Z,4.57
2022-09-06T20:02:00.282Z,4.45
2022-09-06T20:05:02.759Z,4.32
2022-09-06T20:08:05.129Z,4.93
2022-09-06T20:11:09.688Z,4.43
2022-09-06T20:14:13.065Z,4.07
2022-09-06T20:17:32.756Z,4.25
2022-09-06T20:20:35.731Z,4.28
2022-09-06T20:23:38.130Z,4.05
2022-09-06T20:26:40.672Z,4.75
2022-09-06T20:29:43.188Z,4.22
2022-09-06T20:32:45.324Z,4.78
2022-09-06T20:36:04.979Z,4.62
2022-09-06T20:39:07.156Z,4.20
2022-09-06T20:42:09.536Z,4.65
2022-09-06T20:45:12.966Z,4.65
2022-09-06T20:48:15.357Z,4.60
2022-09-06T20:51:23.241Z,4.72
2022-09-06T20:54:25.840Z,4.18
2022-09-06T20:57:28.074Z,4.75
2022-09-06T21:00:30.512Z,4.65
2022-09-06T21:03:38.092Z,4.25
2022-09-06T21:06:40.595Z,4.65
2022-09-06T21:09:42.708Z,4.70
2022-09-06T21:12:45.085Z,4.95
2022-09-06T21:15:47.366Z,5.18
2022-09-06T21:18:54.106Z,4.80
2022-09-06T21:21:56.249Z,5.25
2022-09-06T21:24:58.613Z,5.90
2022-09-06T21:28:00.760Z,5.50
2022-09-06T21:31:14.923Z,5.30
2022-09-06T21:34:17.507Z,4.95
2022-09-06T21:37:19.995Z,4.53
2022-09-06T21:40:22.110Z,5.40
2022-09-06T21:43:24.977Z,5.03
2022-09-06T21:46:33.344Z,5.12
2022-09-06T21:49:36.107Z,4.75
2022-09-06T21:52:38.373Z,4.80
2022-09-06T21:55:41.371Z,4.82
2022-09-06T21:58:44.570Z,4.85
2022-09-06T22:01:47.074Z,4.18
2022-09-06T22:04:50.624Z,4.62
2022-09-06T22:07:52.751Z,4.12
2022-09-06T22:10:55.123Z,4.68
2022-09-06T22:14:03.336Z,4.62
2022-09-06T22:17:05.830Z,4.70
2022-09-06T22:20:09.620Z,4.30
2022-09-06T22:23:12.038Z,4.65
2022-09-06T22:26:14.178Z,4.85
2022-09-06T22:29:16.670Z,5.32
2022-09-06T22:32:19.491Z,5.05
2022-09-06T22:35:22.082Z,5.05
2022-09-06T22:38:24.691Z,4.95
2022-09-06T22:41:29.927Z,5.00
2022-09-06T22:44:32.076Z,5.30
2022-09-06T22:47:34.803Z,4.95
2022-09-06T22:50:36.970Z,4.75
2022-09-06T22:53:39.542Z,5.50
2022-09-06T22:56:41.638Z,5.43
2022-09-06T22:59:44.038Z,5.07
2022-09-06T23:02:46.142Z,5.37
2022-09-06T23:05:48.872Z,5.50
2022-09-06T23:08:51.478Z,5.68
2022-09-06T23:11:54.692Z,5.28
2022-09-06T23:14:56.940Z,5.90
2022-09-06T23:17:59.480Z,5.50
2022-09-06T23:21:09.881Z,5.15
2022-09-06T23:24:12.782Z,5.65
2022-09-06T23:27:15.385Z,5.50
2022-09-06T23:30:19.041Z,5.37
2022-09-06T23:33:21.147Z,5.05
2022-09-06T23:36:24.190Z,5.37
2022-09-06T23:39:28.157Z,5.68
2022-09-06T23:42:30.586Z,5.57
2022-09-06T23:45:33.028Z,5.18
2022-09-06T23:48:35.529Z,4.93
2022-09-06T23:51:37.656Z,4.45
2022-09-06T23:54:40.038Z,5.15
2022-09-06T23:57:42.171Z,5.30
